Time;durP1;ratioP1;P1;durP2;ratioP2;P2;SDS_P1;SDS_P2;PMS_P1;PMS_P2;Temp;Humidity;BMP_temperature;BMP_pressure;BME280_temperature;BME280_humidity;BME280_pressure;Samples;Min_cycle;Max_cycle;Signal;HPM_P1;HPM_P2
2024/01/28 00:00:17;;;;;;;14.57;5.87;;;;;;;4.73;67.56;102403.63;4901462;29;20216;-72
2024/01/28 00:02:45;;;;;;;16.10;6.60;;;;;;;4.71;67.54;102394.94;4899316;29;20300;-72
2024/01/28 00:05:14;;;;;;;21.67;6.10;;;;;;;4.71;67.65;102398.44;4899300;29;20228;-71
2024/01/28 00:07:41;;;;;;;20.20;6.87;;;;;;;4.69;67.50;102392.38;4900318;29;20221;-73
2024/01/28 00:10:10;;;;;;;19.93;6.33;;;;;;;4.68;67.27;102393.28;4900864;29;20240;-73
2024/01/28 00:12:39;;;;;;;17.83;6.27;;;;;;;4.68;67.37;102389.81;4898639;29;20233;-71
2024/01/28 00:15:10;;;;;;;25.87;6.60;;;;;;;4.64;67.36;102386.47;4899492;29;20213;-72
2024/01/28 00:17:37;;;;;;;17.80;6.03;;;;;;;4.62;67.54;102379.56;4897959;29;20669;-74
2024/01/28 00:20:07;;;;;;;15.63;6.10;;;;;;;4.59;67.42;102380.53;4898895;29;20216;-73
2024/01/28 00:22:34;;;;;;;18.73;6.97;;;;;;;4.58;67.38;102385.84;4899970;29;20216;-72
2024/01/28 00:25:02;;;;;;;20.93;6.43;;;;;;;4.55;67.33;102381.59;4898885;29;20276;-72
2024/01/28 00:27:30;;;;;;;19.47;6.87;;;;;;;4.59;67.38;102367.38;4897913;29;20216;-73
2024/01/28 00:29:59;;;;;;;17.40;6.83;;;;;;;4.59;67.29;102369.16;4902613;29;20224;-72
2024/01/28 00:32:27;;;;;;;20.60;8.07;;;;;;;4.58;67.24;102370.94;4900350;29;20249;-71
2024/01/28 00:34:55;;;;;;;16.87;6.73;;;;;;;4.54;67.47;102369.38;4897340;29;20216;-72
2024/01/28 00:37:24;;;;;;;20.13;6.57;;;;;;;4.52;67.54;102366.78;4898192;29;20245;-71
2024/01/28 00:39:52;;;;;;;22.53;7.33;;;;;;;4.56;67.72;102369.31;4898936;29;20287;-71
2024/01/28 00:42:20;;;;;;;20.70;7.07;;;;;;;4.54;67.67;102357.09;4897531;29;20228;-73
2024/01/28 00:44:48;;;;;;;17.73;7.10;;;;;;;4.53;67.56;102347.50;4897995;29;20224;-71
2024/01/28 00:47:17;;;;;;;17.53;6.43;;;;;;;4.48;67.63;102346.84;4897852;29;20213;-73
2024/01/28 00:49:45;;;;;;;19.27;6.87;;;;;;;4.44;67.78;102344.38;4900997;29;20219;-73
2024/01/28 00:52:13;;;;;;;18.93;6.67;;;;;;;4.39;67.83;102341.09;4903612;29;20241;-73
2024/01/28 00:54:41;;;;;;;16.83;6.77;;;;;;;4.38;68.04;102347.28;4903936;29;20208;-72
2024/01/28 00:57:09;;;;;;;21.23;7.23;;;;;;;4.35;68.24;102347.38;4905149;29;20212;-72
2024/01/28 00:59:37;;;;;;;14.87;5.80;;;;;;;4.39;68.01;102346.34;4905428;29;20953;-72
2024/01/28 01:02:05;;;;;;;15.90;6.63;;;;;;;4.40;68.09;102345.41;4904802;29;20216;-73
2024/01/28 01:04:34;;;;;;;19.33;6.30;;;;;;;4.39;68.05;102341.09;4903756;29;20219;-71
2024/01/28 01:07:03;;;;;;;22.00;6.27;;;;;;;4.37;67.98;102348.19;4904074;29;20298;-72
2024/01/28 01:09:31;;;;;;;13.87;5.53;;;;;;;4.33;68.08;102341.34;4905777;29;20211;-71
2024/01/28 01:11:59;;;;;;;27.30;6.30;;;;;;;4.33;68.14;102334.31;4906387;29;20309;-72
2024/01/28 01:14:26;;;;;;;14.83;6.00;;;;;;;4.32;68.35;102331.75;4905157;29;20305;-72
2024/01/28 01:16:54;;;;;;;15.77;7.10;;;;;;;4.31;68.16;102332.69;4905073;29;20333;-74
2024/01/28 01:19:22;;;;;;;13.10;6.20;;;;;;;4.27;68.30;102333.72;4903454;29;20303;-72
2024/01/28 01:21:51;;;;;;;13.33;6.00;;;;;;;4.24;68.40;102321.56;4902688;29;20217;-72
2024/01/28 01:24:19;;;;;;;21.47;5.97;;;;;;;4.24;68.48;102328.56;4906659;29;20211;-73
2024/01/28 01:26:47;;;;;;;21.20;6.37;;;;;;;4.22;68.43;102328.66;4903254;29;20298;-71
2024/01/28 01:29:15;;;;;;;18.97;6.20;;;;;;;4.21;68.69;102326.09;4904216;29;20683;-72
2024/01/28 01:31:42;;;;;;;14.73;5.70;;;;;;;4.21;68.64;102326.09;4905043;29;20247;-72
2024/01/28 01:34:10;;;;;;;18.67;5.80;;;;;;;4.21;68.37;102321.69;4904337;29;20223;-72
2024/01/28 01:36:43;;;;;;;17.23;6.13;;;;;;;4.18;68.52;102320.97;4902870;29;20219;-71
2024/01/28 01:39:14;;;;;;;19.07;6.70;;;;;;;4.13;68.65;102329.84;4904035;29;20855;-71
2024/01/28 01:41:42;;;;;;;20.50;6.83;;;;;;;4.14;68.58;102330.72;4904842;29;20776;-72
2024/01/28 01:44:10;;;;;;;17.87;6.27;;;;;;;4.12;68.80;102322.06;4904300;29;20216;-74
2024/01/28 01:46:40;;;;;;;18.97;6.13;;;;;;;4.08;68.82;102321.31;4903058;29;20220;-73
2024/01/28 01:49:09;;;;;;;17.93;6.93;;;;;;;4.05;69.01;102321.44;4904678;29;20216;-72
2024/01/28 01:51:37;;;;;;;19.43;6.80;;;;;;;4.05;68.96;102310.94;4905918;29;20738;-72
2024/01/28 01:54:06;;;;;;;26.57;7.07;;;;;;;4.02;68.87;102313.72;4903325;29;20217;-72
2024/01/28 01:56:35;;;;;;;16.70;6.40;;;;;;;4.02;69.01;102308.47;4904073;29;20253;-71
2024/01/28 01:59:04;;;;;;;19.23;6.23;;;;;;;3.99;69.05;102305.94;4906466;29;20990;-72
2024/01/28 02:01:34;;;;;;;18.57;6.07;;;;;;;4.01;68.98;102305.88;4901268;29;20240;-72
2024/01/28 02:04:02;;;;;;;17.60;5.93;;;;;;;3.99;68.88;102295.44;4900665;29;20209;-72
2024/01/28 02:06:32;;;;;;;16.40;6.50;;;;;;;3.95;68.93;102296.50;4899390;29;20212;-71
2024/01/28 02:09:00;;;;;;;17.33;6.27;;;;;;;4.00;69.08;102291.91;4901699;29;20220;-72
2024/01/28 02:11:28;;;;;;;17.87;6.07;;;;;;;3.98;68.94;102296.34;4900865;29;20212;-72
2024/01/28 02:13:57;;;;;;;16.10;5.73;;;;;;;3.96;69.03;102295.56;4900454;29;21117;-72
2024/01/28 02:16:25;;;;;;;13.73;6.10;;;;;;;3.94;68.92;102292.16;4900928;29;20216;-72
2024/01/28 02:18:53;;;;;;;15.83;6.20;;;;;;;3.93;69.02;102286.97;4901744;29;20299;-71
2024/01/28 02:21:21;;;;;;;19.37;7.17;;;;;;;3.92;68.99;102293.97;4901475;29;20216;-73
2024/01/28 02:23:50;;;;;;;19.97;7.93;;;;;;;3.89;69.24;102288.00;4900180;29;20219;-72
2024/01/28 02:26:18;;;;;;;19.47;6.83;;;;;;;3.84;69.25;102280.31;4899884;29;20319;-72
2024/01/28 02:28:46;;;;;;;25.93;7.27;;;;;;;3.80;69.35;102273.47;4901755;29;20287;-73
2024/01/28 02:31:14;;;;;;;19.07;6.37;;;;;;;3.76;69.67;102274.53;4902645;29;20212;-72
2024/01/28 02:33:41;;;;;;;22.77;6.43;;;;;;;3.74;69.53;102266.69;4902690;29;20242;-73
2024/01/28 02:36:10;;;;;;;22.37;6.00;;;;;;;3.72;69.69;102265.91;4901381;29;20327;-71
2024/01/28 02:38:37;;;;;;;20.63;6.53;;;;;;;3.69;69.76;102270.44;4900928;29;20215;-72
2024/01/28 02:41:06;;;;;;;21.97;6.70;;;;;;;3.69;69.83;102270.44;4900485;29;20216;-72
2024/01/28 02:43:34;;;;;;;20.80;6.37;;;;;;;3.68;69.81;102268.72;4899063;29;20225;-72
2024/01/28 02:46:02;;;;;;;15.97;6.77;;;;;;;3.67;69.98;102269.63;4900422;29;20227;-73
2024/01/28 02:48:30;;;;;;;15.43;6.10;;;;;;;3.68;69.91;102268.72;4899246;29;20228;-71
2024/01/28 02:50:58;;;;;;;20.00;6.27;;;;;;;3.70;69.85;102267.72;4899662;29;20256;-72
2024/01/28 02:53:26;;;;;;;16.17;6.30;;;;;;;3.70;69.83;102272.13;4899158;29;20328;-74
2024/01/28 02:55:56;;;;;;;20.27;6.47;;;;;;;3.68;69.73;102261.72;4900963;29;20279;-72
2024/01/28 02:58:25;;;;;;;20.10;6.70;;;;;;;3.70;69.98;102272.97;4902111;29;20216;-73
2024/01/28 03:00:53;;;;;;;17.87;5.93;;;;;;;3.70;69.80;102272.13;4902080;29;20214;-71
2024/01/28 03:03:21;;;;;;;14.97;6.10;;;;;;;3.70;69.59;102274.75;4903915;29;20867;-72
2024/01/28 03:05:49;;;;;;;17.23;6.37;;;;;;;3.69;69.72;102267.81;4899838;29;20272;-72
2024/01/28 03:08:17;;;;;;;18.40;6.47;;;;;;;3.68;69.63;102273.97;4901379;29;20302;-73
2024/01/28 03:10:45;;;;;;;16.20;5.57;;;;;;;3.66;69.74;102271.41;4900241;29;20208;-73
2024/01/28 03:13:12;;;;;;;13.90;6.30;;;;;;;3.63;69.85;102276.75;4898335;29;20247;-71
2024/01/28 03:15:42;;;;;;;14.93;6.30;;;;;;;3.59;70.13;102272.56;4898197;29;20738;-72
2024/01/28 03:18:11;;;;;;;18.10;6.20;;;;;;;3.59;70.11;102276.94;4900843;29;20217;-72
2024/01/28 03:20:39;;;;;;;14.40;5.57;;;;;;;3.58;70.26;102280.47;4899579;29;20217;-73
2024/01/28 03:23:06;;;;;;;16.13;6.40;;;;;;;3.56;70.32;102282.31;4898351;29;20221;-72
2024/01/28 03:25:34;;;;;;;21.17;6.47;;;;;;;3.56;70.22;102280.53;4896847;29;20298;-72
2024/01/28 03:28:02;;;;;;;22.37;6.43;;;;;;;3.55;70.22;102277.97;4899878;29;20677;-72
2024/01/28 03:30:30;;;;;;;19.43;5.83;;;;;;;3.60;70.19;102270.78;4901653;29;20847;-72
2024/01/28 03:32:59;;;;;;;15.67;5.63;;;;;;;3.64;70.06;102264.50;4897186;29;20251;-72
2024/01/28 03:35:27;;;;;;;14.30;5.60;;;;;;;3.63;69.88;102266.25;4898574;29;20203;-71
2024/01/28 03:37:55;;;;;;;14.37;5.90;;;;;;;3.64;69.83;102265.34;4900085;29;20214;-72
2024/01/28 03:40:23;;;;;;;15.13;5.53;;;;;;;3.64;69.79;102267.13;4899869;29;20276;-72
2024/01/28 03:42:51;;;;;;;12.87;5.77;;;;;;;3.68;69.62;102276.59;4899651;29;20215;-75
2024/01/28 03:45:19;;;;;;;20.93;6.27;;;;;;;3.67;69.64;102275.75;4898467;29;20276;-73
2024/01/28 03:47:47;;;;;;;12.50;5.50;;;;;;;3.70;69.47;102287.84;4898107;29;20234;-72
2024/01/28 03:50:19;;;;;;;17.30;6.30;;;;;;;3.65;69.61;102280.19;4900174;29;20211;-72
2024/01/28 03:52:47;;;;;;;16.37;5.83;;;;;;;3.63;69.53;102275.91;4901731;29;20319;-72
2024/01/28 03:55:15;;;;;;;11.57;5.90;;;;;;;3.58;69.58;102280.47;4899873;29;20216;-72
2024/01/28 03:57:43;;;;;;;14.93;6.00;;;;;;;3.55;69.71;102284.06;4900663;29;20276;-71
2024/01/28 04:00:13;;;;;;;16.73;6.07;;;;;;;3.55;69.96;102281.44;4898999;29;20215;-72
2024/01/28 04:02:41;;;;;;;19.93;6.53;;;;;;;3.54;69.76;102273.63;4898886;29;20247;-72
2024/01/28 04:05:09;;;;;;;15.30;6.30;;;;;;;3.53;69.72;102277.16;4898759;29;20222;-72
2024/01/28 04:07:38;;;;;;;15.87;6.43;;;;;;;3.48;69.78;102279.97;4900399;29;20212;-72
2024/01/28 04:10:07;;;;;;;14.43;6.03;;;;;;;3.46;70.05;102273.06;4898459;29;21049;-73
2024/01/28 04:12:35;;;;;;;17.07;6.00;;;;;;;3.44;70.19;102265.25;4899480;29;20219;-72
2024/01/28 04:15:03;;;;;;;18.00;6.33;;;;;;;3.41;70.22;102265.41;4899348;29;20611;-73
2024/01/28 04:17:31;;;;;;;21.27;7.03;;;;;;;3.40;70.30;102259.28;4898657;29;20215;-73
2024/01/28 04:19:59;;;;;;;19.97;6.43;;;;;;;3.38;70.41;102257.63;4899984;29;20226;-72
2024/01/28 04:22:27;;;;;;;18.40;6.47;;;;;;;3.39;70.28;102265.44;4899662;29;20927;-72
2024/01/28 04:24:56;;;;;;;19.60;5.80;;;;;;;3.36;70.46;102255.06;4898357;29;20616;-73
2024/01/28 04:27:24;;;;;;;15.43;6.23;;;;;;;3.34;70.50;102259.50;4899385;29;20235;-73
2024/01/28 04:29:52;;;;;;;20.70;6.17;;;;;;;3.34;70.58;102256.06;4899270;29;20272;-73
2024/01/28 04:32:20;;;;;;;17.97;6.53;;;;;;;3.32;70.64;102261.34;4899034;29;20691;-73
2024/01/28 04:34:47;;;;;;;17.90;6.37;;;;;;;3.32;70.56;102263.97;4896645;29;20267;-71
2024/01/28 04:37:16;;;;;;;24.83;6.40;;;;;;;3.34;70.56;102264.75;4898735;29;20222;-72
2024/01/28 04:39:44;;;;;;;19.97;6.27;;;;;;;3.36;70.66;102265.56;4904166;29;20298;-71
2024/01/28 04:42:13;;;;;;;17.70;6.03;;;;;;;3.37;70.56;102261.16;4898782;29;20226;-75
2024/01/28 04:44:41;;;;;;;17.23;5.90;;;;;;;3.37;70.53;102261.16;4897322;29;20226;-71
2024/01/28 04:47:09;;;;;;;17.90;5.30;;;;;;;3.34;70.57;102259.50;4898989;29;20222;-71
2024/01/28 04:49:37;;;;;;;16.47;5.50;;;;;;;3.33;70.75;102251.72;4899363;29;20220;-74
2024/01/28 04:52:05;;;;;;;16.97;5.77;;;;;;;3.32;70.88;102252.63;4898200;29;20348;-73
2024/01/28 04:54:33;;;;;;;16.77;5.47;;;;;;;3.30;70.59;102249.22;4898481;29;20333;-73
2024/01/28 04:57:02;;;;;;;15.47;6.67;;;;;;;3.30;70.56;102247.44;4896824;29;20728;-72
2024/01/28 04:59:31;;;;;;;17.00;6.60;;;;;;;3.32;70.54;102250.88;4897905;29;20330;-73
2024/01/28 05:01:59;;;;;;;17.73;6.13;;;;;;;3.29;70.55;102247.50;4897687;29;20209;-72
2024/01/28 05:04:27;;;;;;;20.87;6.87;;;;;;;3.26;70.75;102240.59;4898971;29;20309;-71
2024/01/28 05:06:55;;;;;;;13.87;6.20;;;;;;;3.27;70.68;102237.06;4897792;29;20214;-72
2024/01/28 05:09:22;;;;;;;24.33;6.43;;;;;;;3.27;70.78;102242.31;4900135;29;20222;-71
2024/01/28 05:11:50;;;;;;;20.20;5.97;;;;;;;3.23;70.83;102245.97;4898149;29;20236;-71
2024/01/28 05:14:18;;;;;;;17.87;5.83;;;;;;;3.21;70.98;102241.69;4901499;29;20299;-72
2024/01/28 05:16:48;;;;;;;16.80;5.87;;;;;;;3.19;70.78;102252.22;4898891;29;20241;-72
2024/01/28 05:19:16;;;;;;;17.10;5.87;;;;;;;3.16;71.00;102247.13;4902453;29;20224;-72
2024/01/28 05:21:44;;;;;;;14.43;5.40;;;;;;;3.13;71.16;102244.59;4898084;29;20215;-72
2024/01/28 05:24:12;;;;;;;12.97;5.80;;;;;;;3.13;70.94;102238.50;4897934;29;20939;-73
2024/01/28 05:26:40;;;;;;;11.50;5.27;;;;;;;3.13;70.85;102243.75;4901606;29;20234;-72
2024/01/28 05:29:07;;;;;;;14.63;5.40;;;;;;;3.12;70.83;102245.50;4900134;29;20300;-73
2024/01/28 05:31:35;;;;;;;17.90;5.43;;;;;;;3.13;70.88;102249.00;4899580;29;20200;-72
2024/01/28 05:34:04;;;;;;;16.10;6.00;;;;;;;3.12;70.94;102247.28;4898368;29;20350;-72
2024/01/28 05:36:32;;;;;;;16.57;5.57;;;;;;;3.11;71.05;102235.94;4897638;29;20259;-73
2024/01/28 05:39:00;;;;;;;11.57;4.97;;;;;;;3.10;70.92;102238.63;4901856;29;20219;-73
2024/01/28 05:41:28;;;;;;;11.37;5.20;;;;;;;3.07;70.93;102239.59;4900694;29;20270;-73
2024/01/28 05:43:56;;;;;;;18.23;5.67;;;;;;;3.06;70.82;102237.03;4902108;29;20220;-73
2024/01/28 05:46:24;;;;;;;20.67;6.00;;;;;;;3.02;71.22;102241.53;4901581;29;22153;-72
2024/01/28 05:48:53;;;;;;;20.57;5.97;;;;;;;3.01;71.07;102230.19;4902660;29;20328;-72
2024/01/28 05:51:22;;;;;;;12.17;5.60;;;;;;;3.00;70.96;102227.59;4901805;29;20220;-72
2024/01/28 05:53:50;;;;;;;19.13;6.30;;;;;;;3.00;71.19;102232.84;4901412;29;20326;-72
2024/01/28 05:56:18;;;;;;;18.23;6.63;;;;;;;2.98;71.34;102227.69;4902767;29;20208;-72
2024/01/28 05:58:46;;;;;;;22.27;6.77;;;;;;;2.99;71.53;102233.78;4901841;29;20244;-73
2024/01/28 06:01:15;;;;;;;21.00;6.30;;;;;;;2.97;71.34;102249.56;4900586;29;20210;-73
2024/01/28 06:03:43;;;;;;;15.37;6.40;;;;;;;2.96;71.46;102254.88;4902970;29;20211;-73
2024/01/28 06:06:11;;;;;;;19.47;5.70;;;;;;;2.94;71.55;102254.06;4903248;29;20219;-72
2024/01/28 06:08:41;;;;;;;17.53;6.97;;;;;;;2.92;71.54;102248.88;4899745;29;20214;-71
2024/01/28 06:11:10;;;;;;;18.90;6.70;;;;;;;2.92;71.62;102250.63;4901019;29;20560;-72
2024/01/28 06:13:38;;;;;;;16.73;6.37;;;;;;;2.93;71.67;102247.09;4902588;29;20266;-72
2024/01/28 06:16:06;;;;;;;26.70;7.13;;;;;;;2.91;71.48;102243.69;4901072;29;20250;-72
2024/01/28 06:18:35;;;;;;;19.40;7.07;;;;;;;2.91;71.35;102248.91;4900608;29;20298;-72
2024/01/28 06:21:03;;;;;;;17.90;7.07;;;;;;;2.90;71.42;102249.84;4901826;29;20215;-73
2024/01/28 06:23:31;;;;;;;18.10;6.57;;;;;;;2.89;71.44;102245.53;4903033;29;20257;-73
2024/01/28 06:26:01;;;;;;;19.93;6.80;;;;;;;2.89;71.55;102241.13;4899152;29;20696;-73
2024/01/28 06:28:28;;;;;;;20.10;7.57;;;;;;;2.89;71.71;102227.19;4901783;29;20222;-71
2024/01/28 06:30:56;;;;;;;17.70;6.63;;;;;;;2.88;71.70;102222.84;4901412;29;20212;-72
2024/01/28 06:33:24;;;;;;;20.07;6.27;;;;;;;2.87;71.66;102227.22;4901403;29;20238;-72
2024/01/28 06:35:52;;;;;;;17.27;6.90;;;;;;;2.87;71.76;102222.00;4901198;29;20241;-71
2024/01/28 06:38:20;;;;;;;36.47;9.80;;;;;;;2.89;71.79;102235.03;4900947;29;20214;-72
2024/01/28 06:40:48;;;;;;;19.03;6.77;;;;;;;2.86;71.69;102236.00;4899861;29;20680;-72
2024/01/28 06:43:17;;;;;;;14.60;5.90;;;;;;;2.83;71.53;102235.25;4901968;29;20215;-73
2024/01/28 06:45:45;;;;;;;18.50;6.50;;;;;;;2.82;71.52;102230.91;4902023;29;20214;-72
2024/01/28 06:48:14;;;;;;;19.23;6.37;;;;;;;2.81;71.44;102237.09;4901405;29;20240;-73
2024/01/28 06:50:42;;;;;;;20.67;7.03;;;;;;;2.79;71.56;102228.41;4901501;29;20274;-72
2024/01/28 06:53:10;;;;;;;19.17;6.97;;;;;;;2.78;71.63;102231.94;4900303;29;20223;-71
2024/01/28 06:55:38;;;;;;;18.30;6.50;;;;;;;2.78;71.66;102237.19;4899503;29;20270;-73
2024/01/28 06:58:05;;;;;;;15.03;6.40;;;;;;;2.79;71.61;102233.66;4900032;29;20229;-72
2024/01/28 07:00:34;;;;;;;14.10;6.60;;;;;;;2.83;71.44;102235.25;4901448;29;20297;-72
2024/01/28 07:03:02;;;;;;;18.87;6.40;;;;;;;2.80;71.30;102235.38;4899829;29;20212;-72
2024/01/28 07:05:30;;;;;;;21.03;7.10;;;;;;;2.80;71.53;102240.63;4899592;29;20214;-72
2024/01/28 07:07:58;;;;;;;21.90;7.40;;;;;;;2.77;71.43;102244.19;4900350;29;21008;-71
2024/01/28 07:10:26;;;;;;;24.00;7.50;;;;;;;2.77;71.40;102240.72;4899587;29;20673;-71
2024/01/28 07:12:55;;;;;;;20.10;7.47;;;;;;;2.77;71.57;102230.22;4899111;29;20284;-73
2024/01/28 07:15:23;;;;;;;22.53;7.30;;;;;;;2.80;71.48;102233.59;4898822;29;20232;-72
2024/01/28 07:17:52;;;;;;;20.13;7.97;;;;;;;2.83;71.54;102230.00;4900995;29;20222;-72
2024/01/28 07:20:20;;;;;;;23.43;7.93;;;;;;;2.83;71.50;102240.47;4901485;29;20763;-73
2024/01/28 07:22:48;;;;;;;21.30;8.50;;;;;;;2.84;71.22;102237.81;4900125;29;20314;-72
2024/01/28 07:25:16;;;;;;;15.03;7.30;;;;;;;2.86;71.36;102250.88;4898288;29;20654;-71
2024/01/28 07:27:43;;;;;;;17.57;6.57;;;;;;;2.85;71.33;102250.00;4901162;29;20246;-73
2024/01/28 07:30:12;;;;;;;17.33;6.07;;;;;;;2.89;71.36;102242.91;4899851;29;20213;-62
2024/01/28 07:32:40;;;;;;;13.70;6.53;;;;;;;2.96;71.00;102244.38;4900834;29;20230;-62
2024/01/28 07:35:09;;;;;;;17.23;6.60;;;;;;;2.98;70.89;102246.03;4902304;29;20237;-61
2024/01/28 07:37:37;;;;;;;15.37;7.03;;;;;;;3.04;70.84;102250.19;4900405;29;20226;-64
2024/01/28 07:40:06;;;;;;;10.97;6.03;;;;;;;3.06;70.58;102244.91;4896975;29;20212;-62
2024/01/28 07:42:34;;;;;;;16.63;7.00;;;;;;;3.08;70.60;102238.66;4900642;29;20220;-64
2024/01/28 07:45:02;;;;;;;14.80;6.17;;;;;;;3.09;70.58;102243.00;4901526;29;20320;-63
2024/01/28 07:47:30;;;;;;;22.60;7.53;;;;;;;3.13;70.35;102249.84;4900722;29;20233;-63
2024/01/28 07:49:59;;;;;;;13.20;6.77;;;;;;;3.14;70.27;102248.94;4899521;29;20238;-62
2024/01/28 07:52:28;;;;;;;13.10;6.43;;;;;;;3.19;70.05;102247.00;4899094;29;20213;-63
2024/01/28 07:54:56;;;;;;;16.77;6.43;;;;;;;3.22;70.03;102244.25;4898557;29;20631;-62
2024/01/28 07:57:24;;;;;;;21.90;7.77;;;;;;;3.28;70.04;102233.53;4898610;29;20288;-64
2024/01/28 07:59:52;;;;;;;23.27;7.53;;;;;;;3.31;69.77;102228.19;4896857;29;20230;-62
2024/01/28 08:02:19;;;;;;;15.40;7.13;;;;;;;3.35;69.69;102218.41;4897563;29;20216;-63
2024/01/28 08:04:47;;;;;;;20.37;6.27;;;;;;;3.36;69.72;102218.34;4900601;29;20210;-62
2024/01/28 08:07:16;;;;;;;14.67;6.33;;;;;;;3.40;69.66;102232.22;4901411;29;20219;-62
2024/01/28 08:09:45;;;;;;;19.80;7.37;;;;;;;3.45;69.53;102234.63;4899667;29;20234;-63
2024/01/28 08:12:13;;;;;;;17.30;6.77;;;;;;;3.49;69.45;102238.88;4900231;29;20469;-62
2024/01/28 08:14:41;;;;;;;19.67;7.33;;;;;;;3.51;69.47;102240.53;4901263;29;20218;-62
2024/01/28 08:17:08;;;;;;;22.40;8.00;;;;;;;3.55;69.46;102228.13;4897288;29;20322;-63
2024/01/28 08:19:38;;;;;;;22.10;8.00;;;;;;;3.65;69.08;102238.19;4899321;29;20239;-63
2024/01/28 08:22:06;;;;;;;22.40;8.13;;;;;;;3.67;68.98;102231.13;4899039;29;20223;-62
2024/01/28 08:24:38;;;;;;;20.93;7.00;;;;;;;3.69;68.85;102228.44;4898512;29;20266;-62
2024/01/28 08:27:07;;;;;;;24.43;8.13;;;;;;;3.68;68.77;102227.59;4898406;29;20262;-63
2024/01/28 08:29:37;;;;;;;17.03;6.87;;;;;;;3.69;68.89;102229.28;4899738;29;20929;-63
2024/01/28 08:32:05;;;;;;;22.97;7.33;;;;;;;3.72;68.88;102223.91;4899324;29;20302;-66
2024/01/28 08:34:33;;;;;;;16.80;6.80;;;;;;;3.79;68.73;102235.00;4900218;29;20208;-62
2024/01/28 08:37:01;;;;;;;22.93;8.07;;;;;;;3.81;68.73;102234.97;4897217;29;20244;-62
2024/01/28 08:39:29;;;;;;;18.77;7.50;;;;;;;3.86;68.62;102233.88;4899628;29;20832;-61
2024/01/28 08:41:56;;;;;;;16.33;6.37;;;;;;;3.94;68.53;102230.94;4899626;29;20278;-64
2024/01/28 08:44:26;;;;;;;19.33;6.33;;;;;;;3.96;68.29;102229.94;4899558;29;20212;-62
2024/01/28 08:46:55;;;;;;;18.37;6.40;;;;;;;4.03;67.94;102233.19;4898070;29;20216;-61
2024/01/28 08:49:22;;;;;;;12.67;6.60;;;;;;;4.09;67.83;102236.41;4901011;29;20215;-62
2024/01/28 08:51:50;;;;;;;18.70;6.83;;;;;;;4.13;67.75;102245.00;4900460;29;20212;-64
2024/01/28 08:54:18;;;;;;;16.43;6.30;;;;;;;4.20;67.60;102245.59;4898442;29;20238;-64
2024/01/28 08:56:47;;;;;;;15.50;6.03;;;;;;;4.26;67.45;102245.34;4899683;29;20228;-64
2024/01/28 08:59:16;;;;;;;17.00;6.30;;;;;;;4.31;67.38;102248.63;4899103;29;20237;-63
2024/01/28 09:01:47;;;;;;;16.40;5.83;;;;;;;4.38;67.44;102250.09;4900929;29;20755;-65
2024/01/28 09:04:15;;;;;;;13.03;6.60;;;;;;;4.46;67.35;102247.97;4898937;29;20213;-61
2024/01/28 09:06:43;;;;;;;17.77;5.87;;;;;;;4.56;66.99;102249.28;4898676;29;20208;-62
2024/01/28 09:09:11;;;;;;;17.53;6.17;;;;;;;4.71;66.46;102245.13;4899217;29;20573;-64
2024/01/28 09:11:39;;;;;;;17.73;6.50;;;;;;;5.69;64.48;102239.69;4902897;29;20667;-61
2024/01/28 09:14:07;;;;;;;14.43;5.23;;;;;;;6.50;60.47;102254.13;4901877;29;20759;-62
2024/01/28 09:16:34;;;;;;;17.93;6.13;;;;;;;6.62;59.69;102253.47;4902220;29;20641;-63
2024/01/28 09:19:04;;;;;;;13.20;7.10;;;;;;;7.30;58.05;102247.16;4902333;29;20209;-63
2024/01/28 09:21:32;;;;;;;15.13;5.83;;;;;;;8.16;55.35;102251.09;4899010;29;20276;-63
2024/01/28 09:24:00;;;;;;;14.27;6.37;;;;;;;8.66;53.91;102253.41;4901014;29;20249;-63
2024/01/28 09:26:28;;;;;;;12.77;5.80;;;;;;;9.63;51.65;102257.03;4901679;29;20261;-63
2024/01/28 09:28:56;;;;;;;12.23;5.90;;;;;;;11.58;48.38;102255.13;4902673;29;20226;-62
2024/01/28 09:31:24;;;;;;;12.07;5.97;;;;;;;15.33;41.58;102245.97;4902038;29;20255;-64
2024/01/28 09:33:52;;;;;;;14.10;6.20;;;;;;;18.30;36.00;102261.38;4900538;29;20278;-61
2024/01/28 09:36:21;;;;;;;18.47;7.67;;;;;;;20.43;32.51;102259.44;4901876;29;20340;-65
2024/01/28 09:38:49;;;;;;;20.00;8.47;;;;;;;22.41;29.60;102259.91;4903029;29;20213;-63
2024/01/28 09:41:22;;;;;;;14.20;7.40;;;;;;;24.33;26.75;102252.41;4903620;29;20217;-63
2024/01/28 09:43:50;;;;;;;13.63;6.80;;;;;;;25.50;25.26;102250.63;4904075;29;20797;-63
2024/01/28 09:46:18;;;;;;;14.23;6.97;;;;;;;25.69;24.75;102255.28;4901613;29;20209;-64
2024/01/28 09:48:47;;;;;;;16.07;7.47;;;;;;;26.03;23.86;102251.63;4899402;29;20707;-63
2024/01/28 09:51:20;;;;;;;11.80;6.30;;;;;;;24.48;24.81;102250.44;4902955;29;20216;-63
2024/01/28 09:53:49;;;;;;;13.82;6.20;;;;;;;23.05;26.13;102256.72;4902300;29;21069;-63
2024/01/28 09:56:17;;;;;;;10.00;6.20;;;;;;;22.49;27.07;102246.31;4902058;29;20339;-64
2024/01/28 09:58:45;;;;;;;15.23;7.28;;;;;;;23.14;26.61;102244.78;4899957;29;20248;-62
2024/01/28 10:01:13;;;;;;;14.18;7.28;;;;;;;23.29;26.29;102242.91;4903539;29;20680;-63
2024/01/28 10:03:43;;;;;;;12.65;6.65;;;;;;;24.12;25.69;102239.66;4901055;29;20213;-62
2024/01/28 10:06:11;;;;;;;12.02;6.85;;;;;;;24.19;25.03;102245.97;4899593;29;20209;-63
2024/01/28 10:08:38;;;;;;;16.95;7.13;;;;;;;24.31;25.07;102239.03;4901653;29;20272;-65
2024/01/28 10:11:12;;;;;;;11.88;6.78;;;;;;;23.23;25.95;102249.91;4901100;29;20230;-62
2024/01/28 10:13:40;;;;;;;13.18;6.70;;;;;;;21.32;27.70;102246.59;4901743;29;20224;-62
2024/01/28 10:16:08;;;;;;;10.88;6.20;;;;;;;18.88;30.66;102244.72;4901156;29;20218;-63
2024/01/28 10:18:36;;;;;;;14.60;6.30;;;;;;;17.52;32.52;102249.53;4900899;29;20214;-62
2024/01/28 10:21:04;;;;;;;12.10;6.60;;;;;;;16.52;34.05;102254.69;4901871;29;20209;-63
2024/01/28 10:23:35;;;;;;;12.37;6.63;;;;;;;16.54;34.27;102247.34;4899077;29;20226;-63
2024/01/28 10:26:06;;;;;;;12.23;6.67;;;;;;;16.84;34.25;102245.47;4899708;29;21007;-63
2024/01/28 10:28:38;;;;;;;14.77;7.00;;;;;;;17.70;33.24;102235.31;4898422;29;20296;-64
2024/01/28 10:31:06;;;;;;;12.57;7.07;;;;;;;17.01;34.29;102238.50;4902100;29;20214;-63
2024/01/28 10:33:34;;;;;;;10.63;6.70;;;;;;;18.59;32.19;102234.28;4898883;29;20451;-63
2024/01/28 10:36:05;;;;;;;14.93;7.13;;;;;;;19.91;30.71;102225.56;4900684;29;20226;-62
2024/01/28 10:38:33;;;;;;;13.03;6.30;;;;;;;20.05;30.45;102221.38;4901174;29;20205;-62
2024/01/28 10:41:02;;;;;;;14.52;7.05;;;;;;;21.40;28.61;102221.44;4900929;29;20217;-63
2024/01/28 10:43:39;;;;;;;13.18;6.82;;;;;;;23.84;26.29;102214.38;4900397;29;20205;-63
2024/01/28 10:46:08;;;;;;;11.57;6.53;;;;;;;26.32;23.82;102209.59;4899940;29;20201;-63
2024/01/28 10:48:42;;;;;;;14.02;6.75;;;;;;;26.82;22.81;102205.34;4901599;29;20296;-63
2024/01/28 10:51:14;;;;;;;14.27;6.38;;;;;;;25.04;24.50;102207.84;4901150;29;20208;-62
2024/01/28 10:53:43;;;;;;;13.10;6.43;;;;;;;22.19;26.76;102206.72;4900725;29;20217;-63
2024/01/28 10:56:12;;;;;;;14.55;8.05;;;;;;;20.02;29.44;102200.16;4899553;29;20740;-64
2024/01/28 10:58:41;;;;;;;16.80;8.23;;;;;;;21.06;28.62;102191.22;4900524;29;20237;-63
2024/01/28 11:01:09;;;;;;;14.13;7.68;;;;;;;21.00;28.71;102190.91;4899045;29;20269;-62
2024/01/28 11:03:38;;;;;;;15.40;7.05;;;;;;;19.85;30.20;102185.03;4900764;29;20213;-63
2024/01/28 11:06:07;;;;;;;13.73;7.13;;;;;;;18.78;31.41;102190.22;4898080;29;20249;-62
2024/01/28 11:08:36;;;;;;;16.45;6.70;;;;;;;18.06;32.92;102188.69;4899417;29;20841;-62
2024/01/28 11:11:04;;;;;;;12.75;6.93;;;;;;;17.31;34.07;102181.91;4899976;29;20217;-63
2024/01/28 11:13:33;;;;;;;9.95;6.45;;;;;;;16.44;34.94;102174.25;4900320;29;20209;-63
2024/01/28 11:16:02;;;;;;;17.88;8.20;;;;;;;15.39;36.21;102178.59;4901008;29;20206;-62
2024/01/28 11:18:30;;;;;;;16.20;6.63;;;;;;;14.57;37.82;102175.25;4898369;29;20221;-63
2024/01/28 11:20:58;;;;;;;13.47;7.07;;;;;;;14.07;38.85;102173.34;4900394;29;20341;-63
2024/01/28 11:23:30;;;;;;;13.60;6.80;;;;;;;13.84;39.56;102164.59;4899151;29;20296;-62
2024/01/28 11:25:58;;;;;;;11.30;6.63;;;;;;;13.85;39.98;102167.16;4900120;29;20209;-64
2024/01/28 11:28:27;;;;;;;16.73;6.80;;;;;;;14.14;39.38;102161.19;4900290;29;20215;-63